WetterOnline ( https://www.wetteronline.de )

Wetter aktuell Alfeld (Leine)

Aktuelles Wetter: Alfeld (148m)

6-stündlich | Neueste Meldungen
Ortszeit Temperatur Wetter
Di, 16.04. 14:00 8.3° C bewölkt
Di, 16.04. 8:00 5.9° C bewölkt
Di, 16.04. 2:00 5.4° C leichter Regen
Mo, 15.04. 20:00 5.7° C leichter Regen
Mo, 15.04. 14:00 12.7° C wolkig
Mo, 15.04. 8:00 8.3° C bedeckt
Mo, 15.04. 2:00 9.4° C bewölkt
So, 14.04. 20:00 12.8° C bedeckt
Ortszeit Temperatur Wetter
Di, 16.04. 16:30 8.5° C bewölkt
Di, 16.04. 16:20 8.5° C bewölkt
Di, 16.04. 16:10 8.5° C bewölkt
Di, 16.04. 16:00 8.0° C Sprühregen
Di, 16.04. 15:50 8.0° C Sprühregen
Di, 16.04. 15:40 7.9° C bedeckt
Di, 16.04. 15:30 7.8° C bewölkt
Di, 16.04. 15:00 7.6° C wolkig
Di, 16.04. 14:30 7.1° C bewölkt
Di, 16.04. 14:00 8.3° C bewölkt
Di, 16.04. 13:30 7.1° C bedeckt
Ortszeit Relative Feuchte Sichtweite
Di, 16.04. 14:00 71% >70 km
Di, 16.04. 8:00 73% 50 km
Di, 16.04. 2:00 79% 11 km
Mo, 15.04. 20:00 87% 15 km
Mo, 15.04. 14:00 49% 35 km
Mo, 15.04. 8:00 88% 40 km
Mo, 15.04. 2:00 67% 65 km
So, 14.04. 20:00 50% 65 km
Ortszeit Relative Feuchte Sichtweite
Di, 16.04. 16:30 68% >70 km
Di, 16.04. 16:20 68% -
Di, 16.04. 16:10 70% -
Di, 16.04. 16:00 72% >70 km
Di, 16.04. 15:50 72% -
Di, 16.04. 15:40 69% -
Di, 16.04. 15:30 71% >70 km
Di, 16.04. 15:00 72% 65 km
Di, 16.04. 14:30 75% >70 km
Di, 16.04. 14:00 71% >70 km
Di, 16.04. 13:30 76% >70 km
Ortszeit Niederschlagsmenge Niederschlagsart
Di, 16.04. 14:00 0.1 l/m2 in 6 Std. Regen
Di, 16.04. 8:00 3 l/m2 in 12 Std. Regen
Di, 16.04. 2:00 0.3 l/m2 in 6 Std. Regen
Mo, 15.04. 20:00 3 l/m2 in 12 Std. Regen
Mo, 15.04. 14:00 0.1 l/m2 in 6 Std. Regen
Mo, 15.04. 8:00 2 l/m2 in 12 Std. Regen
Mo, 15.04. 2:00 0.0 l/m2 in 6 Std. -
So, 14.04. 20:00 0.0 l/m2 in 12 Std. -
Ortszeit Niederschlagsmenge Niederschlagsart
Di, 16.04. 16:30 <0.05 l/m2 in 30 Min Schneeregen
Di, 16.04. 16:20 keine Meldung -
Di, 16.04. 16:10 keine Meldung -
Di, 16.04. 16:00 <0.05 l/m2 in 1 Std. Sprühregen
Di, 16.04. 15:50 keine Meldung -
Di, 16.04. 15:40 keine Meldung -
Di, 16.04. 15:30 0.0 l/m2 in 30 Min -
Di, 16.04. 15:00 <0.05 l/m2 in 1 Std. Regen
Di, 16.04. 14:30 0.0 l/m2 in 30 Min -
Di, 16.04. 14:00 <0.05 l/m2 in 1 Std. Regen
Di, 16.04. 13:30 <0.05 l/m2 in 30 Min Schneeregen
Ortszeit Stärke Spitze Richtung
km/h Bft. km/h Grad Sektor
Di, 16.04. 14:00 14 3 40 180° S
Di, 16.04. 8:00 7 2 48 210° SW
Di, 16.04. 2:00 11 2 50 280° W
Mo, 15.04. 20:00 18 3 65 240° SW
Mo, 15.04. 14:00 17 3 37 220° SW
Mo, 15.04. 8:00 7 2 18 150° SO
Mo, 15.04. 2:00 4 1 11 190° S
So, 14.04. 20:00 7 2 43 320° NW
Ortszeit Stärke Spitze Richtung
km/h Bft. km/h Grad Sektor
Di, 16.04. 16:30 11 2 22 310° NW
Di, 16.04. 16:20 11 2 - 310° NW
Di, 16.04. 16:10 9 2 - 300° NW
Di, 16.04. 16:00 7 2 18 300° NW
Di, 16.04. 15:50 7 2 - 300° NW
Di, 16.04. 15:40 4 1 - 280° W
Di, 16.04. 15:30 7 2 19 130° SO
Di, 16.04. 15:00 11 2 29 140° SO
Di, 16.04. 14:30 18 3 29 140° SO
Di, 16.04. 14:00 14 3 36 180° S
Di, 16.04. 13:30 18 3 29 150° SO
Ortszeit Untergrenze Bedeckung Gattung
total tief tief mittel hoch
Di, 16.04. 14:00 600 m 7/8 7/8 - - -
Di, 16.04. 8:00 750 m 7/8 7/8 - - -
Di, 16.04. 2:00 600 m 7/8 7/8 - - -
Mo, 15.04. 20:00 540 m 7/8 7/8 - - -
Mo, 15.04. 14:00 1500 m 8/8 2/8 - - -
Mo, 15.04. 8:00 1080 m 8/8 8/8 - - -
Mo, 15.04. 2:00 1140 m 7/8 7/8 - - -
So, 14.04. 20:00 5100 m 8/8 8/8 - - -
Ortszeit Bedeckungsgrad in Achtel und Wolkenuntergrenze
Di, 16.04. 16:30 3(690m) 7(1020m) 7(1470m)
Di, 16.04. 16:20 3(690m) 7(1020m) 7(1470m)
Di, 16.04. 16:10 7
Di, 16.04. 16:00 6(660m) 7(780m) 8(1260m)
Di, 16.04. 15:50 6(660m) 7(780m) 8(1260m)
Di, 16.04. 15:40 8
Di, 16.04. 15:30 4(690m) 7(1080m) 7(1290m)
Di, 16.04. 15:00 2(720m) 4(900m) 6(1080m)
Di, 16.04. 14:30 2(540m) 6(870m) 7(1140m)
Di, 16.04. 14:00 1(600m) 6(1320m) 7(1500m)
Di, 16.04. 13:30 2(600m) 7(1290m) 8(1500m)
Ortszeit Luftdruck NN (hPa) Tendenz (hPa in 3 Std.)
Di, 16.04. 14:00 1000 + 0,3
Di, 16.04. 8:00 1000 0,0
Di, 16.04. 2:00 1001 - 0,5
Mo, 15.04. 20:00 1000 - 0,6
Mo, 15.04. 14:00 1005 - 3,8
Mo, 15.04. 8:00 1012 - 1,6
Mo, 15.04. 2:00 1017 - 1,0
So, 14.04. 20:00 1019 - 0,9
Ortszeit Luftdruck NN (hPa) Tendenz (hPa in 3 Std.)
Di, 16.04. 16:30 1002 + 2,0
Di, 16.04. 16:20 1002 keine Meldung
Di, 16.04. 16:10 1001 keine Meldung
Di, 16.04. 16:00 1001 + 1,6
Di, 16.04. 15:50 1001 keine Meldung
Di, 16.04. 15:40 1001 keine Meldung
Di, 16.04. 15:30 1001 + 1,1
Di, 16.04. 15:00 1000 + 1,0
Di, 16.04. 14:30 1000 + 0,4
Di, 16.04. 14:00 1000 + 0,3
Di, 16.04. 13:30 1000 - 0,4
Ortszeit Schneehöhe (cm)
Di, 16.04. 14:00 0
Di, 16.04. 8:00 0
Di, 16.04. 2:00 0
Mo, 15.04. 20:00 0
Mo, 15.04. 14:00 0
Mo, 15.04. 8:00 0
Mo, 15.04. 2:00 0
So, 14.04. 20:00 0
Ortszeit Schneehöhe (cm)
Di, 16.04. 16:30 0
Di, 16.04. 16:20 0
Di, 16.04. 16:10 -
Di, 16.04. 16:00 0
Di, 16.04. 15:50 0
Di, 16.04. 15:40 -
Di, 16.04. 15:30 0
Di, 16.04. 15:00 0
Di, 16.04. 14:30 0
Di, 16.04. 14:00 0
Di, 16.04. 13:30 0
Link zu dieser Seite / Seite empfehlen

Das Wetter in ...